Airfield :
LOGIN :

Register | Disclaimer

   EN    FR    IT 

 










Legend :    VFR   Marginal VFR   IFR   Intensive IFR   Very Intensive IFR
Visi :
Ceiling :
>= 8 km
>= 3000ft
5 to 8 km
1000 to 3000 ft
1500m to 5 km
500 to 1000 ft
800 to 1500m
200 to 500 ft
< 800m
< 200 ft
Symbols :   Thunderstorms  Fog  Heavy snow  Heavy precipitations  Wind > 20 kt
SIGMETs :     Misc.  Thunderstorms  Icing  Turbulence  Mountain Waves  Volcanic Ashes







- Airport Elevation : 26 ft
- IATA code : GLA
- Download approach charts


EGPF - Glasgow

CURRENT METAR :
  • 150020Z AUTO 34009KT 310V020 9999 NCD 02/M01 Q0991

EXPIRED METARs :
  • 142350Z AUTO 33006KT 9999 NCD 02/M01 Q0990
  • 142320Z AUTO VRB03KT 9999 NCD 00/M00 Q0989
  • 142250Z AUTO VRB01KT 9999 NCD 01/00 Q0988
  • 142220Z AUTO 06006KT 9999 -RA FEW031 SCT048 01/01 Q0987
  • 142150Z AUTO 05004KT 9000 -RA SCT022/// BKN030/// BKN044/// //////TCU 02/01 Q0986 RERA

TAF AMD TAF EGPF
Valid from the 15 at 00:00 until the 16 at 00:00 UTC


150008Z 1500/1524 35008KT 9999 SCT025
PROB30
TEMPO 1500/1502 0800 FZFG BKN001
ATIS : +44 141 887 7449
No reported NOTAMs for that airfield.
1 SIGMET reported for the Scottish FIR (EGPX) :
 
Severe turbulence
EGPX SIGMET 02 VALID 142300/150300 EGRR
EGPX SCOTTISH FIR SEV TURB FCST WI N5525 W00729 - N5520 W00810 - N5445 W00900 - N5430 W01000 - N5830 W00530 - N5520 W00655 - N5525 W00729 SFC/FL060 MOV SE 10KT WKN=



MET'MAP, your aeronautical weather chart ! - Copyright ORBIFLY December 2007 - Disclaimer

ORBIFLY MET'MAP TEAM :

Programming & Development : Alexandra Zaïnal
Concept & Development : Baudouin d'Aumeries
Co-Development & Prog : Marc-Olivier Méhu
Technical & hardware support : Manuel Goepfert

Contact : metmap@orbifly.com




SOURCES & CREDITS :

   NOAA